East Marion, NY (11939)

8:14 AM EST on February 22, 2017 (GMT -0500)
Orient Yacht Club | | Change Station

Elev 25 ft 41.14 °N, 72.31 °W | Updated 5 seconds ago

Mostly Cloudy
Mostly Cloudy
40.6 °F
Feels Like 35 °F
N
8.1
Wind Variable Wind from SSE
Gusts 8.1 mph

Today
High -- | Low -- °F
--% Chance of Precip.
Yesterday
High -- | Low -- °F
Precip. -- in
Pressure 30.05 in
Visibility 10.0 miles
Clouds Scattered Clouds 8000 ft
Overcast 11000 ft
Windchill 35 °F
Dew Point 38 °F
Humidity 90%
Rainfall 0.00 in
Snow Depth Not available.
6:33 AM 5:32 PM
Waning Crescent, 17% visible
METAR KHTO 221255Z AUTO 22004KT 10SM SCT080 OVC110 06/03 A3005 RMK AO2 T00560033
Pressure 30.05 in
Visibility 10.0 miles
Clouds Scattered Clouds 8000 ft
Overcast 11000 ft
Windchill 35 °F
Dew Point 38 °F
Humidity 90%
Rainfall 0.00 in
Snow Depth Not available.
6:33 AM 5:32 PM
Waning Crescent, 17% visible
METAR KHTO 221255Z AUTO 22004KT 10SM SCT080 OVC110 06/03 A3005 RMK AO2 T00560033

Get Your Daily Forecast Email!

Thanks for signing up!

Be on the lookout for a verification email in your inbox.

You'll start receiving the daily forecast at 8 AM.

×

10-Day Weather Forecast

Almanac

Astronomy

Feb. 22, 2017 Rise Set
Actual Time
Civil Twilight
Nautical Twilight
Astronomical Twilight
Moon
Length of Visible Light
Length of Day
Tomorrow will be .
, % of the Moon is Illuminated

Today's Extremes

State Highs State Lows

Community

WunderPhotos

Upload Photos

1,962,540 photos uploaded!

WunderBlog® & News

Nearby

Air Quality

  Air Quality AQ Index Pollutant
Not available.

Snow Depth

Station Depth Elevation

Earthquake Activity

City Distance Mag. Time & Date
Minimum magnitude displayed is 2.5.

Coastal Water Temperatures

Place Temperature

Stations

Nearby Weather Stations

Station Location Temp. Windchill Dew Point Humidity Wind Precip. Elev Updated Type
                   

Watches & Warnings

There are currently no watches in effect.